createdAt,value
2018-08-23T00:00:43.996Z,1009.69
2018-08-23T00:02:36.925Z,1009.67
2018-08-23T00:03:36.982Z,1009.64
2018-08-23T00:05:29.855Z,1009.62
2018-08-23T00:06:29.881Z,1009.63
2018-08-23T00:08:22.846Z,1009.59
2018-08-23T00:09:22.840Z,1009.59
2018-08-23T00:11:15.753Z,1009.57
2018-08-23T00:12:15.777Z,1009.59
2018-08-23T00:14:08.716Z,1009.57
2018-08-23T00:15:08.730Z,1009.54
2018-08-23T00:17:01.643Z,1009.53
2018-08-23T00:18:01.669Z,1009.53
2018-08-23T00:19:54.604Z,1009.53
2018-08-23T00:20:54.620Z,1009.55
2018-08-23T00:22:47.569Z,1009.55
2018-08-23T00:23:47.573Z,1009.55
2018-08-23T00:25:40.498Z,1009.53
2018-08-23T00:26:40.523Z,1009.54
2018-08-23T00:28:33.446Z,1009.51
2018-08-23T00:29:33.467Z,1009.49
2018-08-23T00:31:26.384Z,1009.47
2018-08-23T00:32:26.414Z,1009.45
2018-08-23T00:34:19.335Z,1009.42
2018-08-23T00:35:19.349Z,1009.47
2018-08-23T00:37:12.269Z,1009.40
2018-08-23T00:38:12.293Z,1009.42
2018-08-23T00:40:05.218Z,1009.42
2018-08-23T00:41:05.236Z,1009.36
2018-08-23T00:42:58.156Z,1009.40
2018-08-23T00:43:58.178Z,1009.42
2018-08-23T00:45:51.106Z,1009.41
2018-08-23T00:46:51.120Z,1009.41
2018-08-23T00:48:44.047Z,1009.37
2018-08-23T00:49:44.063Z,1009.40
2018-08-23T00:51:36.982Z,1009.38
2018-08-23T00:52:37.013Z,1009.38
2018-08-23T00:54:29.938Z,1009.36
2018-08-23T00:55:29.953Z,1009.37
2018-08-23T00:57:22.872Z,1009.37
2018-08-23T00:58:22.894Z,1009.33
2018-08-23T01:00:15.818Z,1009.32
2018-08-23T01:01:15.833Z,1009.34
2018-08-23T01:03:08.748Z,1009.33
2018-08-23T01:04:08.777Z,1009.33
2018-08-23T01:06:01.699Z,1009.31
2018-08-23T01:07:01.716Z,1009.31
2018-08-23T01:08:54.640Z,1009.22
2018-08-23T01:09:54.658Z,1009.21
2018-08-23T01:11:47.577Z,1009.19
2018-08-23T01:12:47.602Z,1009.22
2018-08-23T01:14:40.524Z,1009.18
2018-08-23T01:15:40.541Z,1009.20
2018-08-23T01:17:33.463Z,1009.17
2018-08-23T01:18:33.491Z,1009.19
2018-08-23T01:20:26.415Z,1009.14
2018-08-23T01:21:26.431Z,1009.13
2018-08-23T01:23:19.349Z,1009.15
2018-08-23T01:24:19.372Z,1009.18
2018-08-23T01:26:12.293Z,1009.14
2018-08-23T01:27:12.312Z,1009.13
2018-08-23T01:29:05.235Z,1009.09
2018-08-23T01:30:05.254Z,1009.11
2018-08-23T01:31:58.169Z,1009.10
2018-08-23T01:32:58.195Z,1009.11
2018-08-23T01:34:51.116Z,1009.09
2018-08-23T01:35:51.132Z,1009.10
2018-08-23T01:37:44.047Z,1009.07
2018-08-23T01:38:44.073Z,1009.05
2018-08-23T01:40:37.004Z,1009.06
2018-08-23T01:41:37.023Z,1009.05
2018-08-23T01:43:29.941Z,1009.05
2018-08-23T01:44:29.963Z,1009.06
2018-08-23T01:46:22.894Z,1009.04
2018-08-23T01:47:22.912Z,1009.02
2018-08-23T01:49:15.832Z,1008.99
2018-08-23T01:50:15.853Z,1008.98
2018-08-23T01:52:08.766Z,1008.97
2018-08-23T01:53:08.791Z,1008.96
2018-08-23T01:55:01.717Z,1008.97
2018-08-23T01:56:01.732Z,1008.95
2018-08-23T01:57:54.647Z,1008.93
2018-08-23T01:58:54.672Z,1008.88
2018-08-23T02:00:47.600Z,1008.91
2018-08-23T02:01:47.613Z,1008.92
2018-08-23T02:03:40.526Z,1008.92
2018-08-23T02:04:40.550Z,1008.95
2018-08-23T02:06:33.479Z,1008.95
2018-08-23T02:07:33.489Z,1008.92
2018-08-23T02:09:26.420Z,1008.94
2018-08-23T02:10:26.432Z,1008.92
2018-08-23T02:12:19.347Z,1008.90
2018-08-23T02:13:19.377Z,1008.86
2018-08-23T02:15:12.298Z,1008.83
2018-08-23T02:16:12.309Z,1008.85
2018-08-23T02:18:05.231Z,1008.80
2018-08-23T02:19:05.256Z,1008.83
2018-08-23T02:20:58.176Z,1008.82
2018-08-23T02:21:58.193Z,1008.81
2018-08-23T02:23:51.109Z,1008.78
2018-08-23T02:24:51.131Z,1008.77
2018-08-23T02:26:44.053Z,1008.77
2018-08-23T02:27:44.069Z,1008.73
2018-08-23T02:29:36.992Z,1008.74
2018-08-23T02:30:37.009Z,1008.74
2018-08-23T02:32:29.924Z,1008.76
2018-08-23T02:33:29.946Z,1008.74
2018-08-23T02:35:22.869Z,1008.77
2018-08-23T02:36:22.888Z,1008.79
2018-08-23T02:38:15.833Z,1008.78
2018-08-23T02:39:15.822Z,1008.79
2018-08-23T02:41:08.749Z,1008.74
2018-08-23T02:42:08.763Z,1008.78
2018-08-23T02:44:01.677Z,1008.75
2018-08-23T02:45:01.721Z,1008.76
2018-08-23T02:46:54.624Z,1008.76
2018-08-23T02:47:54.642Z,1008.75
2018-08-23T02:49:47.560Z,1008.78
2018-08-23T02:50:47.584Z,1008.77
2018-08-23T02:52:40.506Z,1008.75
2018-08-23T02:53:40.525Z,1008.73
2018-08-23T02:55:33.444Z,1008.77
2018-08-23T02:56:33.457Z,1008.75
2018-08-23T02:58:26.372Z,1008.71
2018-08-23T02:59:26.398Z,1008.74
2018-08-23T03:01:19.325Z,1008.74
2018-08-23T03:02:19.339Z,1008.70
2018-08-23T03:04:12.256Z,1008.67
2018-08-23T03:05:12.277Z,1008.63
2018-08-23T03:07:05.202Z,1008.60
2018-08-23T03:08:05.215Z,1008.60
2018-08-23T03:09:58.132Z,1008.60
2018-08-23T03:10:58.154Z,1008.57
2018-08-23T03:12:51.076Z,1008.55
2018-08-23T03:13:51.093Z,1008.54
2018-08-23T03:16:44.173Z,1008.51
2018-08-23T03:18:37.013Z,1008.50
2018-08-23T03:19:37.038Z,1008.52
2018-08-23T03:21:29.988Z,1008.52
2018-08-23T03:22:30.067Z,1008.50
2018-08-23T03:24:23.416Z,1008.49
2018-08-23T03:25:23.480Z,1008.53
2018-08-23T03:27:16.401Z,1008.55
2018-08-23T03:28:16.400Z,1008.49
2018-08-23T03:30:09.346Z,1008.52
2018-08-23T03:31:09.368Z,1008.46
2018-08-23T03:33:02.299Z,1008.47
2018-08-23T03:34:02.407Z,1008.45
2018-08-23T03:35:55.285Z,1008.42
2018-08-23T03:36:55.340Z,1008.48
2018-08-23T03:38:49.316Z,1008.46
2018-08-23T03:39:49.309Z,1008.50
2018-08-23T03:41:42.273Z,1008.47
2018-08-23T03:42:42.246Z,1008.49
2018-08-23T03:44:35.185Z,1008.50
2018-08-23T03:45:35.255Z,1008.51
2018-08-23T03:47:28.181Z,1008.46
2018-08-23T03:48:28.196Z,1008.44
2018-08-23T03:50:21.110Z,1008.48
2018-08-23T03:51:21.115Z,1008.49
2018-08-23T03:53:14.126Z,1008.51
2018-08-23T03:54:14.135Z,1008.52
2018-08-23T03:56:07.060Z,1008.48
2018-08-23T03:57:07.096Z,1008.51
2018-08-23T03:59:00.051Z,1008.50
2018-08-23T04:00:00.078Z,1008.52
2018-08-23T04:01:52.995Z,1008.48
2018-08-23T04:02:53.010Z,1008.47
2018-08-23T04:04:45.928Z,1008.43
2018-08-23T04:05:45.948Z,1008.40
2018-08-23T04:07:38.869Z,1008.38
2018-08-23T04:08:38.885Z,1008.37
2018-08-23T04:10:31.801Z,1008.36
2018-08-23T04:11:31.822Z,1008.33
2018-08-23T04:13:24.746Z,1008.33
2018-08-23T04:14:24.759Z,1008.32
2018-08-23T04:16:17.695Z,1008.36
2018-08-23T04:17:17.696Z,1008.33
2018-08-23T04:19:10.801Z,1008.39
2018-08-23T04:20:10.864Z,1008.36
2018-08-23T04:22:03.751Z,1008.38
2018-08-23T04:23:03.761Z,1008.32
2018-08-23T04:24:56.679Z,1008.37
2018-08-23T04:25:56.704Z,1008.37
2018-08-23T04:27:49.625Z,1008.36
2018-08-23T04:28:49.646Z,1008.42
2018-08-23T04:30:42.555Z,1008.44
2018-08-23T04:31:42.578Z,1008.41
2018-08-23T04:33:35.502Z,1008.45
2018-08-23T04:34:35.514Z,1008.44
2018-08-23T04:36:28.427Z,1008.42
2018-08-23T04:37:28.449Z,1008.45
2018-08-23T04:39:21.373Z,1008.40
2018-08-23T04:40:21.393Z,1008.42
2018-08-23T04:42:14.308Z,1008.36
2018-08-23T04:43:14.481Z,1008.34
2018-08-23T04:45:07.259Z,1008.35
2018-08-23T04:46:07.279Z,1008.36
2018-08-23T04:48:00.196Z,1008.32
2018-08-23T04:49:00.213Z,1008.31
2018-08-23T04:50:53.125Z,1008.32
2018-08-23T04:51:53.147Z,1008.30
2018-08-23T04:53:46.071Z,1008.29
2018-08-23T04:54:46.083Z,1008.29
2018-08-23T04:56:38.997Z,1008.25
2018-08-23T04:57:39.020Z,1008.23
2018-08-23T04:59:31.941Z,1008.25
2018-08-23T05:00:31.957Z,1008.20
2018-08-23T05:02:24.871Z,1008.19
2018-08-23T05:03:24.896Z,1008.16
2018-08-23T05:05:17.818Z,1008.15
2018-08-23T05:06:17.847Z,1008.19
2018-08-23T05:08:10.759Z,1008.22
2018-08-23T05:09:10.780Z,1008.23
2018-08-23T05:11:03.687Z,1008.26
2018-08-23T05:12:03.715Z,1008.28
2018-08-23T05:13:56.676Z,1008.28
2018-08-23T05:14:56.647Z,1008.27
2018-08-23T05:16:49.558Z,1008.21
2018-08-23T05:17:49.581Z,1008.22
2018-08-23T05:19:42.514Z,1008.20
2018-08-23T05:20:42.537Z,1008.16
2018-08-23T05:22:35.451Z,1008.24
2018-08-23T05:23:35.478Z,1008.21
2018-08-23T05:25:28.393Z,1008.28
2018-08-23T05:26:28.407Z,1008.28
2018-08-23T05:28:21.344Z,1008.26
2018-08-23T05:29:21.352Z,1008.27
2018-08-23T05:31:14.262Z,1008.22
2018-08-23T05:32:14.284Z,1008.25
2018-08-23T05:34:07.204Z,1008.23
2018-08-23T05:35:07.221Z,1008.22
2018-08-23T05:37:00.130Z,1008.16
2018-08-23T05:38:00.176Z,1008.18
2018-08-23T05:39:53.089Z,1008.15
2018-08-23T05:40:53.108Z,1008.15
2018-08-23T05:42:46.040Z,1008.14
2018-08-23T05:43:46.047Z,1008.15
2018-08-23T05:45:38.971Z,1008.11
2018-08-23T05:46:38.985Z,1008.10
2018-08-23T05:48:31.920Z,1008.12
2018-08-23T05:49:31.926Z,1008.12
2018-08-23T05:51:24.848Z,1008.11
2018-08-23T05:52:24.868Z,1008.11
2018-08-23T05:54:17.790Z,1008.10
2018-08-23T05:55:17.807Z,1008.17
2018-08-23T05:57:10.724Z,1008.16
2018-08-23T05:58:10.743Z,1008.16
2018-08-23T06:00:03.670Z,1008.13
2018-08-23T06:01:03.687Z,1008.16
2018-08-23T06:02:56.603Z,1008.17
2018-08-23T06:03:56.629Z,1008.17
2018-08-23T06:05:50.546Z,1008.12
2018-08-23T06:06:50.564Z,1008.15
2018-08-23T06:08:43.478Z,1008.17
2018-08-23T06:09:43.500Z,1008.13
2018-08-23T06:11:36.424Z,1008.16
2018-08-23T06:12:36.441Z,1008.13
2018-08-23T06:14:29.383Z,1008.14
2018-08-23T06:15:29.401Z,1008.11
2018-08-23T06:17:22.319Z,1008.17
2018-08-23T06:18:22.343Z,1008.16
2018-08-23T06:20:15.272Z,1008.16
2018-08-23T06:21:15.284Z,1008.18
2018-08-23T06:23:08.203Z,1008.20
2018-08-23T06:24:08.228Z,1008.14
2018-08-23T06:26:01.171Z,1008.18
2018-08-23T06:27:01.179Z,1008.17
2018-08-23T06:28:54.092Z,1008.21
2018-08-23T06:29:54.118Z,1008.20
2018-08-23T06:31:47.038Z,1008.18
2018-08-23T06:32:47.111Z,1008.18
2018-08-23T06:34:39.981Z,1008.20
2018-08-23T06:35:40.027Z,1008.18
2018-08-23T06:37:32.949Z,1008.20
2018-08-23T06:38:32.987Z,1008.23
2018-08-23T06:40:25.867Z,1008.18
2018-08-23T06:41:25.889Z,1008.16
2018-08-23T06:43:18.804Z,1008.16
2018-08-23T06:44:18.845Z,1008.17
2018-08-23T06:46:11.766Z,1008.18
2018-08-23T06:47:11.774Z,1008.16
2018-08-23T06:49:04.698Z,1008.22
2018-08-23T06:50:04.717Z,1008.21
2018-08-23T06:51:57.647Z,1008.18
2018-08-23T06:52:57.663Z,1008.17
2018-08-23T06:54:50.599Z,1008.20
2018-08-23T06:55:50.614Z,1008.16
2018-08-23T06:57:43.533Z,1008.21
2018-08-23T06:58:43.616Z,1008.19
2018-08-23T07:00:36.484Z,1008.22
2018-08-23T07:01:36.504Z,1008.19
2018-08-23T07:03:29.417Z,1008.18
2018-08-23T07:04:29.448Z,1008.18
2018-08-23T07:06:22.369Z,1008.18
2018-08-23T07:07:22.390Z,1008.20
2018-08-23T07:09:15.308Z,1008.14
2018-08-23T07:10:15.334Z,1008.16
2018-08-23T07:12:08.261Z,1008.16
2018-08-23T07:13:08.277Z,1008.18
2018-08-23T07:15:01.211Z,1008.21
2018-08-23T07:16:01.224Z,1008.25
2018-08-23T07:17:54.144Z,1008.23
2018-08-23T07:18:54.170Z,1008.25
2018-08-23T07:20:47.107Z,1008.26
2018-08-23T07:21:47.124Z,1008.25
2018-08-23T07:23:40.052Z,1008.26
2018-08-23T07:24:40.072Z,1008.27
2018-08-23T07:26:33.002Z,1008.23
2018-08-23T07:27:33.024Z,1008.23
2018-08-23T07:29:25.957Z,1008.25
2018-08-23T07:30:25.971Z,1008.27
2018-08-23T07:32:18.899Z,1008.28
2018-08-23T07:33:18.920Z,1008.28
2018-08-23T07:35:11.842Z,1008.27
2018-08-23T07:36:11.862Z,1008.29
2018-08-23T07:38:04.779Z,1008.27
2018-08-23T07:39:04.830Z,1008.25
2018-08-23T07:40:57.734Z,1008.24
2018-08-23T07:41:57.811Z,1008.23
2018-08-23T07:43:50.673Z,1008.21
2018-08-23T07:44:50.700Z,1008.18
2018-08-23T07:46:43.627Z,1008.12
2018-08-23T07:47:43.647Z,1008.16
2018-08-23T07:49:36.568Z,1008.16
2018-08-23T07:50:36.597Z,1008.16
2018-08-23T07:52:29.540Z,1008.18
2018-08-23T07:53:29.722Z,1008.16
2018-08-23T07:55:22.488Z,1008.22
2018-08-23T07:56:22.501Z,1008.18
2018-08-23T07:58:15.423Z,1008.19
2018-08-23T07:59:15.447Z,1008.18
2018-08-23T08:01:08.402Z,1008.19
2018-08-23T08:02:08.424Z,1008.19
2018-08-23T08:04:01.346Z,1008.18
2018-08-23T08:05:01.370Z,1008.18
2018-08-23T08:06:54.302Z,1008.18
2018-08-23T08:07:54.326Z,1008.19
2018-08-23T08:09:47.245Z,1008.17
2018-08-23T08:10:47.274Z,1008.21
2018-08-23T08:12:40.204Z,1008.18
2018-08-23T08:13:40.222Z,1008.16
2018-08-23T08:15:33.338Z,1008.18
2018-08-23T08:16:33.365Z,1008.19
2018-08-23T08:18:26.294Z,1008.19
2018-08-23T08:19:26.319Z,1008.19
2018-08-23T08:21:19.244Z,1008.15
2018-08-23T08:22:19.262Z,1008.16
2018-08-23T08:24:12.184Z,1008.07
2018-08-23T08:25:12.217Z,1008.10
2018-08-23T08:27:05.186Z,1008.08
2018-08-23T08:28:05.168Z,1008.09
2018-08-23T08:29:58.094Z,1008.09
2018-08-23T08:30:58.119Z,1008.07
2018-08-23T08:32:51.050Z,1008.07
2018-08-23T08:33:51.067Z,1008.08
2018-08-23T08:35:43.993Z,1008.07
2018-08-23T08:36:44.023Z,1008.07
2018-08-23T08:38:36.974Z,1008.03
2018-08-23T08:39:36.977Z,1008.00
2018-08-23T08:41:29.906Z,1008.02
2018-08-23T08:42:29.929Z,1008.05
2018-08-23T08:44:22.850Z,1008.02
2018-08-23T08:45:22.932Z,1008.01
2018-08-23T08:47:15.816Z,1008.02
2018-08-23T08:48:15.835Z,1008.01
2018-08-23T08:50:08.780Z,1008.03
2018-08-23T08:51:08.783Z,1007.98
2018-08-23T08:53:01.747Z,1008.02
2018-08-23T08:54:01.770Z,1007.96
2018-08-23T08:55:54.693Z,1007.98
2018-08-23T08:56:54.814Z,1007.97
2018-08-23T08:58:47.751Z,1007.93
2018-08-23T08:59:47.793Z,1007.90
2018-08-23T09:01:40.654Z,1007.85
2018-08-23T09:02:40.693Z,1007.83
2018-08-23T09:04:33.646Z,1007.84
2018-08-23T09:05:33.660Z,1007.84
2018-08-23T09:07:26.607Z,1007.82
2018-08-23T09:08:26.615Z,1007.82
2018-08-23T09:10:19.553Z,1007.81
2018-08-23T09:11:19.571Z,1007.79
2018-08-23T09:13:12.507Z,1007.74
2018-08-23T09:14:12.528Z,1007.73
2018-08-23T09:16:06.801Z,1007.64
2018-08-23T09:17:06.549Z,1007.67
2018-08-23T09:18:58.434Z,1007.69
2018-08-23T09:19:58.511Z,1007.65
2018-08-23T09:21:51.427Z,1007.62
2018-08-23T09:22:51.404Z,1007.64
2018-08-23T09:24:44.329Z,1007.57
2018-08-23T09:25:44.373Z,1007.58
2018-08-23T09:27:38.020Z,1007.58
2018-08-23T09:28:38.039Z,1007.54
2018-08-23T09:30:31.049Z,1007.50
2018-08-23T09:31:31.071Z,1007.51
2018-08-23T09:33:24.104Z,1007.46
2018-08-23T09:34:24.127Z,1007.48
2018-08-23T09:36:17.209Z,1007.52
2018-08-23T09:37:17.192Z,1007.47
2018-08-23T09:39:10.215Z,1007.48
2018-08-23T09:40:10.244Z,1007.48
2018-08-23T09:42:03.268Z,1007.46
2018-08-23T09:43:03.342Z,1007.52
2018-08-23T09:44:56.326Z,1007.48
2018-08-23T09:45:56.355Z,1007.46
2018-08-23T09:47:49.387Z,1007.40
2018-08-23T09:48:49.409Z,1007.40
2018-08-23T09:52:14.830Z,1007.38
2018-08-23T09:53:14.829Z,1007.34
2018-08-23T09:55:07.861Z,1007.35
2018-08-23T09:56:07.884Z,1007.35
2018-08-23T09:58:00.919Z,1007.36
2018-08-23T09:59:00.944Z,1007.34
2018-08-23T10:00:53.970Z,1007.33
2018-08-23T10:01:54.003Z,1007.28
2018-08-23T10:03:47.032Z,1007.27
2018-08-23T10:04:47.095Z,1007.24
2018-08-23T10:06:40.086Z,1007.21
2018-08-23T10:07:40.113Z,1007.17
2018-08-23T10:09:34.067Z,1007.21
2018-08-23T10:10:34.098Z,1007.19
2018-08-23T10:12:27.119Z,1007.18
2018-08-23T10:13:27.147Z,1007.22
2018-08-23T10:15:20.588Z,1007.17
2018-08-23T10:16:20.612Z,1007.17
2018-08-23T10:18:13.639Z,1007.19
2018-08-23T10:19:13.676Z,1007.14
2018-08-23T10:21:06.704Z,1007.16
2018-08-23T10:22:06.730Z,1007.11
2018-08-23T10:23:59.761Z,1007.14
2018-08-23T10:24:59.786Z,1007.11
2018-08-23T10:26:52.806Z,1007.11
2018-08-23T10:27:52.839Z,1007.08
2018-08-23T10:29:45.875Z,1007.06
2018-08-23T10:30:45.892Z,1007.05
2018-08-23T10:32:38.929Z,1007.03
2018-08-23T10:33:38.959Z,1007.02
2018-08-23T10:35:31.980Z,1006.94
2018-08-23T10:36:32.005Z,1007.02
2018-08-23T10:38:25.035Z,1007.02
2018-08-23T10:39:25.062Z,1007.00
2018-08-23T10:41:18.103Z,1006.96
2018-08-23T10:42:18.118Z,1006.96
2018-08-23T10:44:11.155Z,1006.95
2018-08-23T10:45:11.176Z,1006.95
2018-08-23T10:47:04.198Z,1006.92
2018-08-23T10:48:04.235Z,1006.86
2018-08-23T10:49:57.267Z,1006.93
2018-08-23T10:50:57.357Z,1006.92
2018-08-23T10:52:50.729Z,1006.95
2018-08-23T10:53:50.765Z,1006.91
2018-08-23T10:55:44.448Z,1006.94
2018-08-23T10:56:43.808Z,1006.91
2018-08-23T10:58:36.837Z,1006.84
2018-08-23T10:59:36.869Z,1006.87
2018-08-23T11:01:39.848Z,1006.88
2018-08-23T11:02:39.849Z,1006.91
2018-08-23T11:04:33.005Z,1006.87
2018-08-23T11:05:33.029Z,1006.91
2018-08-23T11:07:25.970Z,1006.92
2018-08-23T11:08:25.996Z,1006.88
2018-08-23T11:10:18.933Z,1006.89
2018-08-23T11:11:18.950Z,1006.92
2018-08-23T11:13:11.876Z,1006.87
2018-08-23T11:14:11.905Z,1006.85
2018-08-23T11:16:04.839Z,1006.90
2018-08-23T11:17:04.995Z,1006.89
2018-08-23T11:18:57.788Z,1006.81
2018-08-23T11:19:57.817Z,1006.81
2018-08-23T11:21:50.748Z,1006.74
2018-08-23T11:22:50.770Z,1006.79
2018-08-23T11:24:43.704Z,1006.77
2018-08-23T11:25:43.729Z,1006.83
2018-08-23T11:27:36.654Z,1006.84
2018-08-23T11:28:36.685Z,1006.83
2018-08-23T11:30:29.618Z,1006.78
2018-08-23T11:31:29.640Z,1006.77
2018-08-23T11:33:22.572Z,1006.70
2018-08-23T11:34:22.603Z,1006.73
2018-08-23T11:36:15.539Z,1006.68
2018-08-23T11:37:15.561Z,1006.67
2018-08-23T11:39:08.484Z,1006.69
2018-08-23T11:40:08.516Z,1006.67
2018-08-23T11:42:01.454Z,1006.66
2018-08-23T11:43:01.472Z,1006.63
2018-08-23T11:44:54.411Z,1006.69
2018-08-23T11:45:54.429Z,1006.67
2018-08-23T11:47:47.516Z,1006.57
2018-08-23T11:48:47.573Z,1006.63
2018-08-23T11:50:40.485Z,1006.64
2018-08-23T11:51:40.507Z,1006.65
2018-08-23T11:53:33.633Z,1006.61
2018-08-23T11:54:33.981Z,1006.66
2018-08-23T11:56:26.391Z,1006.61
2018-08-23T11:57:26.417Z,1006.57
2018-08-23T11:59:19.340Z,1006.54
2018-08-23T12:00:19.376Z,1006.56
2018-08-23T12:02:12.301Z,1006.60
2018-08-23T12:03:12.345Z,1006.58
2018-08-23T12:05:05.448Z,1006.55
2018-08-23T12:06:05.472Z,1006.54
2018-08-23T12:07:58.394Z,1006.58
2018-08-23T12:08:58.426Z,1006.59
2018-08-23T12:10:51.357Z,1006.57
2018-08-23T12:11:51.380Z,1006.53
2018-08-23T12:13:44.304Z,1006.52
2018-08-23T12:14:44.336Z,1006.47
2018-08-23T12:16:37.479Z,1006.49
2018-08-23T12:17:37.312Z,1006.47
2018-08-23T12:19:30.234Z,1006.42
2018-08-23T12:20:30.473Z,1006.46
2018-08-23T12:22:24.190Z,1006.44
2018-08-23T12:23:23.221Z,1006.41
2018-08-23T12:25:16.528Z,1006.41
2018-08-23T12:26:16.738Z,1006.43
2018-08-23T12:28:09.473Z,1006.35
2018-08-23T12:29:09.503Z,1006.33
2018-08-23T12:31:02.446Z,1006.29
2018-08-23T12:32:02.486Z,1006.25
2018-08-23T12:33:55.384Z,1006.32
2018-08-23T12:34:55.509Z,1006.29
2018-08-23T12:36:48.379Z,1006.28
2018-08-23T12:37:48.371Z,1006.27
2018-08-23T12:39:41.296Z,1006.18
2018-08-23T12:40:41.331Z,1006.16
2018-08-23T12:42:34.265Z,1006.15
2018-08-23T12:43:34.324Z,1006.15
2018-08-23T12:45:27.223Z,1006.14
2018-08-23T12:46:27.314Z,1006.14
2018-08-23T12:48:20.168Z,1006.08
2018-08-23T12:49:20.253Z,1006.09
2018-08-23T12:51:13.131Z,1006.05
2018-08-23T12:52:13.155Z,1006.00
2018-08-23T12:54:06.087Z,1006.06
2018-08-23T12:55:06.126Z,1006.04
2018-08-23T12:56:59.051Z,1006.01
2018-08-23T12:57:59.074Z,1005.99
2018-08-23T12:59:52.000Z,1005.96
2018-08-23T13:00:52.032Z,1005.98
2018-08-23T13:02:45.185Z,1006.00
2018-08-23T13:03:45.015Z,1005.91
2018-08-23T13:05:37.921Z,1005.89
2018-08-23T13:06:37.944Z,1005.89
2018-08-23T13:08:30.914Z,1005.81
2018-08-23T13:09:30.898Z,1005.79
2018-08-23T13:11:23.830Z,1005.85
2018-08-23T13:12:23.852Z,1005.84
2018-08-23T13:14:16.782Z,1005.81
2018-08-23T13:15:16.812Z,1005.86
2018-08-23T13:17:09.932Z,1005.80
2018-08-23T13:18:09.931Z,1005.79
2018-08-23T13:20:02.861Z,1005.78
2018-08-23T13:21:02.888Z,1005.74
2018-08-23T13:22:55.829Z,1005.72
2018-08-23T13:23:55.849Z,1005.75
2018-08-23T13:25:48.782Z,1005.77
2018-08-23T13:26:48.806Z,1005.80
2018-08-23T13:28:41.746Z,1005.68
2018-08-23T13:29:41.771Z,1005.69
2018-08-23T13:31:34.750Z,1005.69
2018-08-23T13:32:34.725Z,1005.65
2018-08-23T13:34:27.649Z,1005.66
2018-08-23T13:35:27.686Z,1005.66
2018-08-23T13:37:20.615Z,1005.54
2018-08-23T13:38:20.637Z,1005.60
2018-08-23T13:40:13.559Z,1005.55
2018-08-23T13:41:13.593Z,1005.53
2018-08-23T13:43:06.530Z,1005.53
2018-08-23T13:44:06.551Z,1005.47
2018-08-23T13:45:59.469Z,1005.45
2018-08-23T13:46:59.507Z,1005.47
2018-08-23T13:48:52.440Z,1005.50
2018-08-23T13:49:52.466Z,1005.50
2018-08-23T13:51:45.409Z,1005.47
2018-08-23T13:52:45.475Z,1005.43
2018-08-23T13:54:38.393Z,1005.51
2018-08-23T13:55:38.383Z,1005.44
2018-08-23T13:57:31.326Z,1005.41
2018-08-23T13:58:31.340Z,1005.36
2018-08-23T14:00:26.037Z,1005.41
2018-08-23T14:01:25.082Z,1005.37
2018-08-23T14:03:18.032Z,1005.42
2018-08-23T14:04:18.057Z,1005.44
2018-08-23T14:06:11.052Z,1005.38
2018-08-23T14:07:11.073Z,1005.44
2018-08-23T14:09:03.948Z,1005.36
2018-08-23T14:10:03.971Z,1005.34
2018-08-23T14:11:57.026Z,1005.41
2018-08-23T14:12:57.128Z,1005.36
2018-08-23T14:14:50.062Z,1005.34
2018-08-23T14:15:50.073Z,1005.34
2018-08-23T14:17:43.010Z,1005.29
2018-08-23T14:18:43.035Z,1005.29
2018-08-23T14:20:35.963Z,1005.18
2018-08-23T14:21:35.989Z,1005.20
2018-08-23T14:23:28.926Z,1005.26
2018-08-23T14:24:28.944Z,1005.27
2018-08-23T14:26:21.873Z,1005.27
2018-08-23T14:27:21.908Z,1005.23
2018-08-23T14:29:14.873Z,1005.17
2018-08-23T14:30:14.862Z,1005.16
2018-08-23T14:32:07.792Z,1005.21
2018-08-23T14:33:07.873Z,1005.21
2018-08-23T14:35:00.746Z,1005.22
2018-08-23T14:36:00.774Z,1005.18
2018-08-23T14:37:53.708Z,1005.13
2018-08-23T14:38:53.796Z,1005.13
2018-08-23T14:40:47.003Z,1005.06
2018-08-23T14:41:46.712Z,1005.11
2018-08-23T14:43:39.778Z,1005.07
2018-08-23T14:44:39.804Z,1005.09
2018-08-23T14:46:32.738Z,1005.07
2018-08-23T14:47:32.758Z,1005.11
2018-08-23T14:49:25.698Z,1005.10
2018-08-23T14:50:25.721Z,1005.09
2018-08-23T14:52:18.656Z,1005.11
2018-08-23T14:53:18.746Z,1005.02
2018-08-23T14:55:11.677Z,1004.98
2018-08-23T14:56:11.648Z,1005.00
2018-08-23T14:58:04.578Z,1005.02
2018-08-23T14:59:04.713Z,1004.99
2018-08-23T15:00:58.578Z,1004.98
2018-08-23T15:01:58.557Z,1004.97
2018-08-23T15:03:51.499Z,1004.94
2018-08-23T15:04:51.506Z,1004.90
2018-08-23T15:06:44.557Z,1004.93
2018-08-23T15:07:44.632Z,1004.91
2018-08-23T15:09:37.449Z,1004.86
2018-08-23T15:10:37.461Z,1004.80
2018-08-23T15:12:30.394Z,1004.89
2018-08-23T15:13:30.413Z,1004.85
2018-08-23T15:15:23.351Z,1004.87
2018-08-23T15:16:23.382Z,1004.85
2018-08-23T15:18:16.317Z,1004.74
2018-08-23T15:19:16.340Z,1004.77
2018-08-23T15:21:09.269Z,1004.75
2018-08-23T15:22:09.331Z,1004.80
2018-08-23T15:24:02.233Z,1004.83
2018-08-23T15:25:02.258Z,1004.83
2018-08-23T15:26:55.250Z,1004.82
2018-08-23T15:27:55.213Z,1004.82
2018-08-23T15:29:48.300Z,1004.75
2018-08-23T15:30:48.167Z,1004.74
2018-08-23T15:32:41.093Z,1004.70
2018-08-23T15:33:41.126Z,1004.73
2018-08-23T15:35:34.296Z,1004.76
2018-08-23T15:36:34.320Z,1004.75
2018-08-23T15:38:27.273Z,1004.71
2018-08-23T15:39:27.309Z,1004.72
2018-08-23T15:41:20.205Z,1004.70
2018-08-23T15:42:20.234Z,1004.69
2018-08-23T15:44:13.170Z,1004.67
2018-08-23T15:45:13.193Z,1004.69
2018-08-23T15:47:06.125Z,1004.66
2018-08-23T15:48:06.311Z,1004.66
2018-08-23T15:49:59.109Z,1004.64
2018-08-23T15:50:59.107Z,1004.66
2018-08-23T15:52:52.035Z,1004.60
2018-08-23T15:53:52.065Z,1004.56
2018-08-23T15:55:45.046Z,1004.52
2018-08-23T15:56:45.023Z,1004.55
2018-08-23T15:58:37.953Z,1004.61
2018-08-23T15:59:37.983Z,1004.51
2018-08-23T16:01:30.921Z,1004.53
2018-08-23T16:02:30.940Z,1004.61
2018-08-23T16:04:23.892Z,1004.58
2018-08-23T16:05:23.898Z,1004.54
2018-08-23T16:07:17.083Z,1004.60
2018-08-23T16:08:16.998Z,1004.57
2018-08-23T16:10:09.953Z,1004.50
2018-08-23T16:11:09.956Z,1004.58
2018-08-23T16:13:02.884Z,1004.50
2018-08-23T16:14:02.916Z,1004.57
2018-08-23T16:15:55.869Z,1004.52
2018-08-23T16:16:55.888Z,1004.50
2018-08-23T16:18:49.583Z,1004.53
2018-08-23T16:19:49.614Z,1004.46
2018-08-23T16:21:42.558Z,1004.48
2018-08-23T16:22:42.572Z,1004.47
2018-08-23T16:24:35.521Z,1004.38
2018-08-23T16:25:35.533Z,1004.43
2018-08-23T16:27:28.454Z,1004.43
2018-08-23T16:28:28.484Z,1004.38
2018-08-23T16:30:21.417Z,1004.43
2018-08-23T16:31:21.437Z,1004.41
2018-08-23T16:33:14.364Z,1004.44
2018-08-23T16:34:14.394Z,1004.45
2018-08-23T16:36:07.323Z,1004.44
2018-08-23T16:37:07.348Z,1004.46
2018-08-23T16:39:00.273Z,1004.44
2018-08-23T16:40:00.373Z,1004.45
2018-08-23T16:41:53.241Z,1004.43
2018-08-23T16:42:53.265Z,1004.40
2018-08-23T16:44:46.208Z,1004.42
2018-08-23T16:45:46.253Z,1004.42
2018-08-23T16:47:39.169Z,1004.43
2018-08-23T16:48:39.194Z,1004.42
2018-08-23T16:50:32.122Z,1004.39
2018-08-23T16:51:32.144Z,1004.41
2018-08-23T16:53:25.066Z,1004.42
2018-08-23T16:54:25.123Z,1004.41
2018-08-23T16:56:18.027Z,1004.43
2018-08-23T16:57:18.051Z,1004.45
2018-08-23T16:59:10.979Z,1004.44
2018-08-23T17:00:11.005Z,1004.43
2018-08-23T17:02:03.939Z,1004.45
2018-08-23T17:03:03.957Z,1004.46
2018-08-23T17:04:56.880Z,1004.42
2018-08-23T17:05:56.909Z,1004.42
2018-08-23T17:07:49.854Z,1004.37
2018-08-23T17:08:49.864Z,1004.33
2018-08-23T17:10:42.794Z,1004.35
2018-08-23T17:11:42.818Z,1004.36
2018-08-23T17:13:35.753Z,1004.34
2018-08-23T17:14:35.775Z,1004.31
2018-08-23T17:16:28.875Z,1004.30
2018-08-23T17:17:28.895Z,1004.34
2018-08-23T17:19:21.819Z,1004.36
2018-08-23T17:20:21.849Z,1004.37
2018-08-23T17:22:14.780Z,1004.39
2018-08-23T17:23:14.858Z,1004.39
2018-08-23T17:25:07.791Z,1004.43
2018-08-23T17:26:07.767Z,1004.43
2018-08-23T17:28:00.698Z,1004.38
2018-08-23T17:29:00.723Z,1004.37